ADDS - METARS form results

Aviation Digital Data Service (ADDS)

Output produced by METARs form (0201 UTC 18 November 2019)
found at http://aviationweather.gov/metar/data/
 
METAR text: KVYS 180155Z AUTO 25005KT 1 3/4SM BR BKN006 OVC010 03/02 A2987 RMK AO2 T00270023
Conditions at: KVYS (PERU , IL, US) observed 0155 UTC 18 November 2019
Temperature: 2.7°C (37°F)
Dewpoint: 2.3°C (36°F) [RH = 97%]
Pressure (altimeter): 29.87 inches Hg (1011.6 mb)
Winds: from the WSW (250 degrees) at 6 MPH (5 knots; 2.6 m/s)
Visibility: 1.75 miles (2.82 km)
Ceiling: 600 feet AGL
Clouds: broken clouds at 600 feet AGL
overcast cloud deck at 1000 feet AGL
Weather: BR  (mist)

METAR text: KVYS 180135Z AUTO 25003KT 1 3/4SM BR BKN005 OVC012 03/02 A2987 RMK AO2 T00270023
Conditions at: KVYS (PERU , IL, US) observed 0135 UTC 18 November 2019
Temperature: 2.7°C (37°F)
Dewpoint: 2.3°C (36°F) [RH = 97%]
Pressure (altimeter): 29.87 inches Hg (1011.6 mb)
Winds: from the WSW (250 degrees) at 3 MPH (3 knots; 1.5 m/s)
Visibility: 1.75 miles (2.82 km)
Ceiling: 500 feet AGL
Clouds: broken clouds at 500 feet AGL
overcast cloud deck at 1200 feet AGL
Weather: BR  (mist)

METAR text: KVYS 180115Z AUTO 24004KT 1 1/2SM -DZ BKN005 OVC013 03/02 A2987 RMK AO2 T00270023
Conditions at: KVYS (PERU , IL, US) observed 0115 UTC 18 November 2019
Temperature: 2.7°C (37°F)
Dewpoint: 2.3°C (36°F) [RH = 97%]
Pressure (altimeter): 29.87 inches Hg (1011.6 mb)
Winds: from the WSW (240 degrees) at 5 MPH (4 knots; 2.1 m/s)
Visibility: 1.50 miles (2.41 km)
Ceiling: 500 feet AGL
Clouds: broken clouds at 500 feet AGL
overcast cloud deck at 1300 feet AGL
Weather: -DZ  (light drizzle)